sensor_id;sensor_type;location;lat;lon;timestamp;temperature;humidity
35607;DHT22;21729;58.392;15.656;2023-03-08T00:02:17;-3.30;95.70
35607;DHT22;21729;58.392;15.656;2023-03-08T00:04:44;-3.30;91.20
35607;DHT22;21729;58.392;15.656;2023-03-08T00:07:11;-3.30;72.10
35607;DHT22;21729;58.392;15.656;2023-03-08T00:09:38;-3.30;90.30
35607;DHT22;21729;58.392;15.656;2023-03-08T00:12:06;-3.30;81.60
35607;DHT22;21729;58.392;15.656;2023-03-08T00:14:36;-3.30;70.40
35607;DHT22;21729;58.392;15.656;2023-03-08T00:17:04;-3.30;82.90
35607;DHT22;21729;58.392;15.656;2023-03-08T00:19:31;-3.30;87.80
35607;DHT22;21729;58.392;15.656;2023-03-08T00:21:58;-3.20;68.00
35607;DHT22;21729;58.392;15.656;2023-03-08T00:24:25;-3.20;90.40
35607;DHT22;21729;58.392;15.656;2023-03-08T00:26:52;-3.30;75.40
35607;DHT22;21729;58.392;15.656;2023-03-08T00:29:20;-3.20;53.90
35607;DHT22;21729;58.392;15.656;2023-03-08T00:31:48;-3.20;53.60
35607;DHT22;21729;58.392;15.656;2023-03-08T00:34:16;-3.20;40.30
35607;DHT22;21729;58.392;15.656;2023-03-08T00:36:43;-3.20;46.10
35607;DHT22;21729;58.392;15.656;2023-03-08T00:39:11;-3.10;44.10
35607;DHT22;21729;58.392;15.656;2023-03-08T00:41:39;-3.20;60.90
35607;DHT22;21729;58.392;15.656;2023-03-08T00:44:06;-3.20;49.00
35607;DHT22;21729;58.392;15.656;2023-03-08T00:46:33;-3.20;75.70
35607;DHT22;21729;58.392;15.656;2023-03-08T00:49:02;-3.20;64.10
35607;DHT22;21729;58.392;15.656;2023-03-08T00:51:29;-3.20;77.20
35607;DHT22;21729;58.392;15.656;2023-03-08T00:53:56;-3.30;96.40
35607;DHT22;21729;58.392;15.656;2023-03-08T00:56:23;-3.30;99.90
35607;DHT22;21729;58.392;15.656;2023-03-08T00:58:50;-3.30;99.90
35607;DHT22;21729;58.392;15.656;2023-03-08T01:01:18;-3.30;99.90
35607;DHT22;21729;58.392;15.656;2023-03-08T01:03:45;-3.30;99.90
35607;DHT22;21729;58.392;15.656;2023-03-08T01:06:14;-3.30;99.90
35607;DHT22;21729;58.392;15.656;2023-03-08T01:08:42;-3.20;99.90
35607;DHT22;21729;58.392;15.656;2023-03-08T01:11:15;-3.20;99.90
35607;DHT22;21729;58.392;15.656;2023-03-08T01:13:43;-3.20;99.90
35607;DHT22;21729;58.392;15.656;2023-03-08T01:16:18;-3.20;99.90
35607;DHT22;21729;58.392;15.656;2023-03-08T01:18:45;-3.20;91.30
35607;DHT22;21729;58.392;15.656;2023-03-08T01:21:14;-3.20;99.90
35607;DHT22;21729;58.392;15.656;2023-03-08T01:23:42;-3.20;80.40
35607;DHT22;21729;58.392;15.656;2023-03-08T01:26:11;-3.20;84.40
35607;DHT22;21729;58.392;15.656;2023-03-08T01:28:39;-3.20;99.90
35607;DHT22;21729;58.392;15.656;2023-03-08T01:31:08;-3.20;99.90
35607;DHT22;21729;58.392;15.656;2023-03-08T01:33:37;-3.20;99.90
35607;DHT22;21729;58.392;15.656;2023-03-08T01:36:05;-3.20;99.90
35607;DHT22;21729;58.392;15.656;2023-03-08T01:38:34;-3.20;99.90
35607;DHT22;21729;58.392;15.656;2023-03-08T01:41:04;-3.30;99.90
35607;DHT22;21729;58.392;15.656;2023-03-08T01:43:33;-3.30;99.90
35607;DHT22;21729;58.392;15.656;2023-03-08T01:48:51;-3.30;99.90
35607;DHT22;21729;58.392;15.656;2023-03-08T01:51:24;-3.30;99.90
35607;DHT22;21729;58.392;15.656;2023-03-08T01:53:54;-3.10;99.90
35607;DHT22;21729;58.392;15.656;2023-03-08T01:56:22;-3.40;99.90
35607;DHT22;21729;58.392;15.656;2023-03-08T01:58:50;-3.40;99.90
35607;DHT22;21729;58.392;15.656;2023-03-08T02:01:19;-3.40;99.90
35607;DHT22;21729;58.392;15.656;2023-03-08T02:03:47;-3.40;99.90
35607;DHT22;21729;58.392;15.656;2023-03-08T02:06:15;-3.40;99.90
35607;DHT22;21729;58.392;15.656;2023-03-08T02:08:43;-3.40;99.90
35607;DHT22;21729;58.392;15.656;2023-03-08T02:11:12;-3.40;99.90
35607;DHT22;21729;58.392;15.656;2023-03-08T02:13:41;-3.40;99.90
35607;DHT22;21729;58.392;15.656;2023-03-08T02:16:12;-3.40;99.90
35607;DHT22;21729;58.392;15.656;2023-03-08T02:18:53;-3.40;99.90
35607;DHT22;21729;58.392;15.656;2023-03-08T02:21:22;-3.10;99.90
35607;DHT22;21729;58.392;15.656;2023-03-08T02:23:50;-3.30;99.90
35607;DHT22;21729;58.392;15.656;2023-03-08T02:26:18;-3.30;99.90
35607;DHT22;21729;58.392;15.656;2023-03-08T02:28:45;-3.20;73.30
35607;DHT22;21729;58.392;15.656;2023-03-08T02:31:15;-3.20;40.00
35607;DHT22;21729;58.392;15.656;2023-03-08T02:33:42;-3.20;19.40
35607;DHT22;21729;58.392;15.656;2023-03-08T02:36:09;-3.20;8.60
35607;DHT22;21729;58.392;15.656;2023-03-08T02:38:37;-3.10;1.00
35607;DHT22;21729;58.392;15.656;2023-03-08T02:41:05;-3.20;1.00
35607;DHT22;21729;58.392;15.656;2023-03-08T02:43:32;-3.20;1.00
35607;DHT22;21729;58.392;15.656;2023-03-08T02:46:00;-3.10;1.00
35607;DHT22;21729;58.392;15.656;2023-03-08T02:48:27;-3.20;1.00
35607;DHT22;21729;58.392;15.656;2023-03-08T02:50:54;-3.20;1.00
35607;DHT22;21729;58.392;15.656;2023-03-08T02:53:21;-3.20;1.00
35607;DHT22;21729;58.392;15.656;2023-03-08T02:55:49;-3.20;1.00
35607;DHT22;21729;58.392;15.656;2023-03-08T02:58:17;-3.20;1.00
35607;DHT22;21729;58.392;15.656;2023-03-08T03:00:45;-3.20;1.00
35607;DHT22;21729;58.392;15.656;2023-03-08T03:03:12;-3.20;1.00
35607;DHT22;21729;58.392;15.656;2023-03-08T03:05:42;-3.30;1.00
35607;DHT22;21729;58.392;15.656;2023-03-08T03:08:10;-2.90;1.00
35607;DHT22;21729;58.392;15.656;2023-03-08T03:10:38;-3.20;1.00
35607;DHT22;21729;58.392;15.656;2023-03-08T03:13:06;-3.30;1.00
35607;DHT22;21729;58.392;15.656;2023-03-08T03:15:36;-3.20;1.00
35607;DHT22;21729;58.392;15.656;2023-03-08T03:18:04;-3.30;1.00
35607;DHT22;21729;58.392;15.656;2023-03-08T03:20:32;-3.30;1.00
35607;DHT22;21729;58.392;15.656;2023-03-08T03:22:59;-3.30;1.00
35607;DHT22;21729;58.392;15.656;2023-03-08T03:25:26;-3.30;1.00
35607;DHT22;21729;58.392;15.656;2023-03-08T03:27:54;-3.30;1.00
35607;DHT22;21729;58.392;15.656;2023-03-08T03:30:21;-3.30;1.00
35607;DHT22;21729;58.392;15.656;2023-03-08T03:32:50;-3.30;1.00
35607;DHT22;21729;58.392;15.656;2023-03-08T03:35:17;-3.30;1.00
35607;DHT22;21729;58.392;15.656;2023-03-08T03:37:44;-3.30;1.00
35607;DHT22;21729;58.392;15.656;2023-03-08T03:40:12;-3.30;1.00
35607;DHT22;21729;58.392;15.656;2023-03-08T03:42:40;-3.30;1.00
35607;DHT22;21729;58.392;15.656;2023-03-08T03:45:07;-3.30;1.00
35607;DHT22;21729;58.392;15.656;2023-03-08T03:47:35;-3.30;1.00
35607;DHT22;21729;58.392;15.656;2023-03-08T03:50:04;-3.40;1.00
35607;DHT22;21729;58.392;15.656;2023-03-08T03:52:31;-3.30;1.00
35607;DHT22;21729;58.392;15.656;2023-03-08T03:54:58;-3.40;1.00
35607;DHT22;21729;58.392;15.656;2023-03-08T03:57:25;-3.30;1.00
35607;DHT22;21729;58.392;15.656;2023-03-08T03:59:52;-3.30;1.00
35607;DHT22;21729;58.392;15.656;2023-03-08T04:02:19;-3.40;1.00
35607;DHT22;21729;58.392;15.656;2023-03-08T04:04:48;-3.40;1.00
35607;DHT22;21729;58.392;15.656;2023-03-08T04:07:17;-3.40;1.00
35607;DHT22;21729;58.392;15.656;2023-03-08T04:09:44;-3.40;1.00
35607;DHT22;21729;58.392;15.656;2023-03-08T04:12:12;-3.50;1.00
35607;DHT22;21729;58.392;15.656;2023-03-08T04:14:39;-3.50;1.00
35607;DHT22;21729;58.392;15.656;2023-03-08T04:17:07;-3.50;1.00
35607;DHT22;21729;58.392;15.656;2023-03-08T04:19:34;-3.60;1.00
35607;DHT22;21729;58.392;15.656;2023-03-08T04:22:01;-3.40;1.00
35607;DHT22;21729;58.392;15.656;2023-03-08T04:24:30;-3.60;1.00
35607;DHT22;21729;58.392;15.656;2023-03-08T04:26:57;-3.60;1.00
35607;DHT22;21729;58.392;15.656;2023-03-08T04:29:24;-3.70;1.00
35607;DHT22;21729;58.392;15.656;2023-03-08T04:31:51;-3.70;24.80
35607;DHT22;21729;58.392;15.656;2023-03-08T04:34:22;-3.70;1.00
35607;DHT22;21729;58.392;15.656;2023-03-08T04:36:49;-3.80;21.70
35607;DHT22;21729;58.392;15.656;2023-03-08T04:39:17;-3.70;21.70
35607;DHT22;21729;58.392;15.656;2023-03-08T04:41:45;-3.70;8.20
35607;DHT22;21729;58.392;15.656;2023-03-08T04:44:12;-3.70;1.00
35607;DHT22;21729;58.392;15.656;2023-03-08T04:46:39;-3.70;4.80
35607;DHT22;21729;58.392;15.656;2023-03-08T04:49:06;-3.70;1.00
35607;DHT22;21729;58.392;15.656;2023-03-08T04:51:33;-3.70;1.00
35607;DHT22;21729;58.392;15.656;2023-03-08T04:54:00;-3.70;1.00
35607;DHT22;21729;58.392;15.656;2023-03-08T04:56:29;-3.70;1.00
35607;DHT22;21729;58.392;15.656;2023-03-08T04:58:57;-3.70;1.00
35607;DHT22;21729;58.392;15.656;2023-03-08T05:01:24;-3.70;1.00
35607;DHT22;21729;58.392;15.656;2023-03-08T05:03:52;-3.70;1.00
35607;DHT22;21729;58.392;15.656;2023-03-08T05:06:20;-3.70;1.00
35607;DHT22;21729;58.392;15.656;2023-03-08T05:08:47;-3.70;1.00
35607;DHT22;21729;58.392;15.656;2023-03-08T05:11:17;-3.70;1.00
35607;DHT22;21729;58.392;15.656;2023-03-08T05:13:45;-3.70;1.00
35607;DHT22;21729;58.392;15.656;2023-03-08T05:16:13;-3.70;1.00
35607;DHT22;21729;58.392;15.656;2023-03-08T05:18:41;-3.70;1.00
35607;DHT22;21729;58.392;15.656;2023-03-08T05:21:11;-3.40;1.00
35607;DHT22;21729;58.392;15.656;2023-03-08T05:23:38;-3.70;1.00
35607;DHT22;21729;58.392;15.656;2023-03-08T05:26:07;-3.70;1.00
35607;DHT22;21729;58.392;15.656;2023-03-08T05:28:36;-3.70;1.00
35607;DHT22;21729;58.392;15.656;2023-03-08T05:31:09;-3.70;1.00
35607;DHT22;21729;58.392;15.656;2023-03-08T05:33:38;-3.70;1.00
35607;DHT22;21729;58.392;15.656;2023-03-08T05:36:06;-3.70;1.00
35607;DHT22;21729;58.392;15.656;2023-03-08T05:38:34;-3.70;1.00
35607;DHT22;21729;58.392;15.656;2023-03-08T05:41:02;-3.80;1.00
35607;DHT22;21729;58.392;15.656;2023-03-08T05:43:30;-3.80;1.00
35607;DHT22;21729;58.392;15.656;2023-03-08T05:45:59;-3.80;1.00
35607;DHT22;21729;58.392;15.656;2023-03-08T05:48:27;-3.80;1.00
35607;DHT22;21729;58.392;15.656;2023-03-08T05:50:56;-3.80;1.00
35607;DHT22;21729;58.392;15.656;2023-03-08T05:53:24;-3.80;1.00
35607;DHT22;21729;58.392;15.656;2023-03-08T05:55:51;-3.80;1.00
35607;DHT22;21729;58.392;15.656;2023-03-08T05:58:20;-3.80;1.00
35607;DHT22;21729;58.392;15.656;2023-03-08T06:00:47;-3.60;1.00
35607;DHT22;21729;58.392;15.656;2023-03-08T06:03:14;-3.90;1.00
35607;DHT22;21729;58.392;15.656;2023-03-08T06:05:41;-3.90;1.00
35607;DHT22;21729;58.392;15.656;2023-03-08T06:08:10;-3.80;1.00
35607;DHT22;21729;58.392;15.656;2023-03-08T06:10:37;-3.70;1.00
35607;DHT22;21729;58.392;15.656;2023-03-08T06:13:04;-3.70;1.00
35607;DHT22;21729;58.392;15.656;2023-03-08T06:15:31;-3.70;1.00
35607;DHT22;21729;58.392;15.656;2023-03-08T06:17:58;-3.70;1.00
35607;DHT22;21729;58.392;15.656;2023-03-08T06:20:25;-3.70;1.00
35607;DHT22;21729;58.392;15.656;2023-03-08T06:22:52;-3.70;1.00
35607;DHT22;21729;58.392;15.656;2023-03-08T06:25:21;-3.70;1.00
35607;DHT22;21729;58.392;15.656;2023-03-08T06:27:48;-3.80;1.00
35607;DHT22;21729;58.392;15.656;2023-03-08T06:30:16;-3.80;1.00
35607;DHT22;21729;58.392;15.656;2023-03-08T06:32:43;-3.80;1.00
35607;DHT22;21729;58.392;15.656;2023-03-08T06:35:11;-3.80;1.00
35607;DHT22;21729;58.392;15.656;2023-03-08T06:37:38;-3.80;1.00
35607;DHT22;21729;58.392;15.656;2023-03-08T06:40:06;-3.60;1.00
35607;DHT22;21729;58.392;15.656;2023-03-08T06:42:35;-3.80;1.00
35607;DHT22;21729;58.392;15.656;2023-03-08T06:45:03;-3.80;1.00
35607;DHT22;21729;58.392;15.656;2023-03-08T06:47:30;-3.80;1.00
35607;DHT22;21729;58.392;15.656;2023-03-08T06:49:57;-3.80;1.00
35607;DHT22;21729;58.392;15.656;2023-03-08T06:52:24;-3.70;1.00
35607;DHT22;21729;58.392;15.656;2023-03-08T06:54:51;-3.60;1.00
35607;DHT22;21729;58.392;15.656;2023-03-08T06:57:18;-3.60;1.00
35607;DHT22;21729;58.392;15.656;2023-03-08T06:59:47;-3.70;1.00
35607;DHT22;21729;58.392;15.656;2023-03-08T07:02:14;-3.50;1.00
35607;DHT22;21729;58.392;15.656;2023-03-08T07:04:41;-3.40;99.90
35607;DHT22;21729;58.392;15.656;2023-03-08T07:07:08;-3.40;99.90
35607;DHT22;21729;58.392;15.656;2023-03-08T07:09:35;-3.30;99.90
35607;DHT22;21729;58.392;15.656;2023-03-08T07:12:03;-3.30;99.90
35607;DHT22;21729;58.392;15.656;2023-03-08T07:14:30;-3.20;99.90
35607;DHT22;21729;58.392;15.656;2023-03-08T07:16:58;-3.20;99.90
35607;DHT22;21729;58.392;15.656;2023-03-08T07:19:25;-3.20;99.90
35607;DHT22;21729;58.392;15.656;2023-03-08T07:21:52;-3.20;99.90
35607;DHT22;21729;58.392;15.656;2023-03-08T07:24:20;-3.20;99.90
35607;DHT22;21729;58.392;15.656;2023-03-08T07:26:47;-3.00;99.90
35607;DHT22;21729;58.392;15.656;2023-03-08T07:29:14;-3.20;99.90
35607;DHT22;21729;58.392;15.656;2023-03-08T07:31:41;-3.30;99.90
35607;DHT22;21729;58.392;15.656;2023-03-08T07:34:12;-3.30;99.90
35607;DHT22;21729;58.392;15.656;2023-03-08T07:36:39;-3.00;99.90
35607;DHT22;21729;58.392;15.656;2023-03-08T07:39:06;-3.20;99.90
35607;DHT22;21729;58.392;15.656;2023-03-08T07:41:33;-3.20;99.90
35607;DHT22;21729;58.392;15.656;2023-03-08T07:44:01;-2.90;99.90
35607;DHT22;21729;58.392;15.656;2023-03-08T07:46:28;-3.00;99.90
35607;DHT22;21729;58.392;15.656;2023-03-08T07:48:55;-3.10;99.90
35607;DHT22;21729;58.392;15.656;2023-03-08T07:51:24;-3.10;99.90
35607;DHT22;21729;58.392;15.656;2023-03-08T07:53:51;-3.00;99.90
35607;DHT22;21729;58.392;15.656;2023-03-08T07:56:19;-3.20;99.90
35607;DHT22;21729;58.392;15.656;2023-03-08T07:58:46;-3.20;99.90
35607;DHT22;21729;58.392;15.656;2023-03-08T08:01:13;-3.40;99.90
35607;DHT22;21729;58.392;15.656;2023-03-08T08:03:40;-3.50;99.90
35607;DHT22;21729;58.392;15.656;2023-03-08T08:06:08;-3.20;99.90
35607;DHT22;21729;58.392;15.656;2023-03-08T08:08:36;-2.30;99.90
35607;DHT22;21729;58.392;15.656;2023-03-08T08:11:10;-0.10;92.10
35607;DHT22;21729;58.392;15.656;2023-03-08T08:13:37;1.30;1.00
35607;DHT22;21729;58.392;15.656;2023-03-08T08:16:05;2.00;1.00
35607;DHT22;21729;58.392;15.656;2023-03-08T08:18:33;1.30;1.00
35607;DHT22;21729;58.392;15.656;2023-03-08T08:21:02;-0.50;1.00
35607;DHT22;21729;58.392;15.656;2023-03-08T08:23:30;-1.30;1.00
35607;DHT22;21729;58.392;15.656;2023-03-08T08:25:59;-1.50;48.50
35607;DHT22;21729;58.392;15.656;2023-03-08T08:28:26;-1.70;45.80
35607;DHT22;21729;58.392;15.656;2023-03-08T08:30:57;-2.00;23.50
35607;DHT22;21729;58.392;15.656;2023-03-08T08:33:24;-2.00;43.30
35607;DHT22;21729;58.392;15.656;2023-03-08T08:35:51;-1.70;60.20
35607;DHT22;21729;58.392;15.656;2023-03-08T08:38:18;-1.90;62.80
35607;DHT22;21729;58.392;15.656;2023-03-08T08:40:46;-1.90;50.20
35607;DHT22;21729;58.392;15.656;2023-03-08T08:43:15;-1.70;56.60
35607;DHT22;21729;58.392;15.656;2023-03-08T08:45:43;-1.50;36.50
35607;DHT22;21729;58.392;15.656;2023-03-08T08:48:10;-1.60;1.00
35607;DHT22;21729;58.392;15.656;2023-03-08T08:50:38;-1.60;8.30
35607;DHT22;21729;58.392;15.656;2023-03-08T08:53:05;-1.50;1.00
35607;DHT22;21729;58.392;15.656;2023-03-08T08:55:33;-1.30;1.00
35607;DHT22;21729;58.392;15.656;2023-03-08T08:58:00;-1.30;1.00
35607;DHT22;21729;58.392;15.656;2023-03-08T09:00:29;-0.90;1.00
35607;DHT22;21729;58.392;15.656;2023-03-08T09:02:56;-1.00;1.00
35607;DHT22;21729;58.392;15.656;2023-03-08T09:05:23;-0.90;1.00
35607;DHT22;21729;58.392;15.656;2023-03-08T09:07:52;-0.50;1.00
35607;DHT22;21729;58.392;15.656;2023-03-08T09:10:20;-1.00;1.00
35607;DHT22;21729;58.392;15.656;2023-03-08T09:12:47;-1.10;1.00
35607;DHT22;21729;58.392;15.656;2023-03-08T09:15:14;-0.80;1.00
35607;DHT22;21729;58.392;15.656;2023-03-08T09:17:42;-0.40;1.00
35607;DHT22;21729;58.392;15.656;2023-03-08T09:20:11;-0.40;1.00
35607;DHT22;21729;58.392;15.656;2023-03-08T09:22:38;-0.20;1.00
35607;DHT22;21729;58.392;15.656;2023-03-08T09:25:07;0.00;1.00
35607;DHT22;21729;58.392;15.656;2023-03-08T09:27:36;0.30;1.00
35607;DHT22;21729;58.392;15.656;2023-03-08T09:30:04;0.70;1.00
35607;DHT22;21729;58.392;15.656;2023-03-08T09:32:32;0.30;1.00
35607;DHT22;21729;58.392;15.656;2023-03-08T09:35:01;0.70;1.00
35607;DHT22;21729;58.392;15.656;2023-03-08T09:37:29;0.50;1.00
35607;DHT22;21729;58.392;15.656;2023-03-08T09:39:56;0.70;1.00
35607;DHT22;21729;58.392;15.656;2023-03-08T09:42:26;0.90;1.00
35607;DHT22;21729;58.392;15.656;2023-03-08T09:47:59;1.30;1.00
35607;DHT22;21729;58.392;15.656;2023-03-08T09:50:41;1.50;1.00
35607;DHT22;21729;58.392;15.656;2023-03-08T09:53:19;1.60;1.00
35607;DHT22;21729;58.392;15.656;2023-03-08T09:55:51;1.90;1.00
35607;DHT22;21729;58.392;15.656;2023-03-08T09:58:27;2.10;1.00
35607;DHT22;21729;58.392;15.656;2023-03-08T10:01:00;1.80;1.00
35607;DHT22;21729;58.392;15.656;2023-03-08T10:03:52;2.10;1.00
35607;DHT22;21729;58.392;15.656;2023-03-08T10:06:26;3.00;1.00
35607;DHT22;21729;58.392;15.656;2023-03-08T10:09:01;2.70;1.00
35607;DHT22;21729;58.392;15.656;2023-03-08T10:11:32;3.10;1.00
35607;DHT22;21729;58.392;15.656;2023-03-08T10:14:08;3.10;1.00
35607;DHT22;21729;58.392;15.656;2023-03-08T10:16:41;3.30;1.00
35607;DHT22;21729;58.392;15.656;2023-03-08T10:19:15;3.80;1.00
35607;DHT22;21729;58.392;15.656;2023-03-08T10:21:46;3.20;1.00
35607;DHT22;21729;58.392;15.656;2023-03-08T10:24:15;3.10;1.00
35607;DHT22;21729;58.392;15.656;2023-03-08T10:26:45;3.30;1.00
35607;DHT22;21729;58.392;15.656;2023-03-08T10:29:12;4.20;1.00
35607;DHT22;21729;58.392;15.656;2023-03-08T10:31:42;3.90;99.90
35607;DHT22;21729;58.392;15.656;2023-03-08T10:34:13;1.90;1.00
35607;DHT22;21729;58.392;15.656;2023-03-08T10:36:49;1.00;1.00
35607;DHT22;21729;58.392;15.656;2023-03-08T10:39:17;0.40;1.00
35607;DHT22;21729;58.392;15.656;2023-03-08T10:41:48;0.40;1.00
35607;DHT22;21729;58.392;15.656;2023-03-08T10:44:29;0.10;1.00
35607;DHT22;21729;58.392;15.656;2023-03-08T10:46:58;-0.50;1.00
35607;DHT22;21729;58.392;15.656;2023-03-08T10:49:25;-0.90;1.00
35607;DHT22;21729;58.392;15.656;2023-03-08T10:51:55;-1.00;1.00
35607;DHT22;21729;58.392;15.656;2023-03-08T10:54:23;-1.10;1.00
35607;DHT22;21729;58.392;15.656;2023-03-08T10:56:53;-1.10;1.00
35607;DHT22;21729;58.392;15.656;2023-03-08T10:59:22;-1.30;1.00
35607;DHT22;21729;58.392;15.656;2023-03-08T11:01:56;-1.60;1.00
35607;DHT22;21729;58.392;15.656;2023-03-08T11:04:25;-1.50;1.00
35607;DHT22;21729;58.392;15.656;2023-03-08T11:06:55;-1.40;1.00
35607;DHT22;21729;58.392;15.656;2023-03-08T11:09:24;-1.30;1.00
35607;DHT22;21729;58.392;15.656;2023-03-08T11:11:53;-1.20;1.00
35607;DHT22;21729;58.392;15.656;2023-03-08T11:14:20;-1.00;1.00
35607;DHT22;21729;58.392;15.656;2023-03-08T11:17:09;-1.00;1.00
35607;DHT22;21729;58.392;15.656;2023-03-08T11:19:49;-1.10;1.00
35607;DHT22;21729;58.392;15.656;2023-03-08T11:22:41;-1.10;1.00
35607;DHT22;21729;58.392;15.656;2023-03-08T11:25:16;-0.90;1.00
35607;DHT22;21729;58.392;15.656;2023-03-08T11:27:59;-0.90;1.00
35607;DHT22;21729;58.392;15.656;2023-03-08T11:30:34;-0.80;1.00
35607;DHT22;21729;58.392;15.656;2023-03-08T11:33:26;-0.80;1.00
35607;DHT22;21729;58.392;15.656;2023-03-08T11:36:01;-0.80;1.00
35607;DHT22;21729;58.392;15.656;2023-03-08T11:38:32;-0.90;1.00
35607;DHT22;21729;58.392;15.656;2023-03-08T11:41:05;-1.00;1.00
35607;DHT22;21729;58.392;15.656;2023-03-08T11:43:53;-0.90;1.00
35607;DHT22;21729;58.392;15.656;2023-03-08T11:46:23;-0.80;1.00
35607;DHT22;21729;58.392;15.656;2023-03-08T11:49:23;-0.80;1.00
35607;DHT22;21729;58.392;15.656;2023-03-08T11:51:58;-0.90;1.00
35607;DHT22;21729;58.392;15.656;2023-03-08T11:54:39;-0.80;1.00
35607;DHT22;21729;58.392;15.656;2023-03-08T11:57:09;-0.70;1.00
35607;DHT22;21729;58.392;15.656;2023-03-08T11:59:40;-0.80;1.00
35607;DHT22;21729;58.392;15.656;2023-03-08T12:02:14;-0.80;1.00
35607;DHT22;21729;58.392;15.656;2023-03-08T12:04:46;-0.50;1.00
35607;DHT22;21729;58.392;15.656;2023-03-08T12:07:18;-0.50;1.00
35607;DHT22;21729;58.392;15.656;2023-03-08T12:09:55;-0.70;1.00
35607;DHT22;21729;58.392;15.656;2023-03-08T12:12:29;-0.70;1.00
35607;DHT22;21729;58.392;15.656;2023-03-08T12:15:01;-0.60;1.00
35607;DHT22;21729;58.392;15.656;2023-03-08T12:17:34;-0.70;1.00
35607;DHT22;21729;58.392;15.656;2023-03-08T12:20:04;-0.80;1.00
35607;DHT22;21729;58.392;15.656;2023-03-08T12:22:44;-0.70;1.00
35607;DHT22;21729;58.392;15.656;2023-03-08T12:25:21;-0.70;1.00
35607;DHT22;21729;58.392;15.656;2023-03-08T12:27:53;-0.80;1.00
35607;DHT22;21729;58.392;15.656;2023-03-08T12:30:31;-0.80;99.90
35607;DHT22;21729;58.392;15.656;2023-03-08T12:33:01;-0.80;99.90
35607;DHT22;21729;58.392;15.656;2023-03-08T12:35:31;-0.60;1.00
35607;DHT22;21729;58.392;15.656;2023-03-08T12:38:00;-0.60;1.00
35607;DHT22;21729;58.392;15.656;2023-03-08T12:40:38;-0.50;1.00
35607;DHT22;21729;58.392;15.656;2023-03-08T12:43:08;-0.70;99.90
35607;DHT22;21729;58.392;15.656;2023-03-08T12:45:37;-0.50;99.90
35607;DHT22;21729;58.392;15.656;2023-03-08T12:48:15;-0.60;99.90
35607;DHT22;21729;58.392;15.656;2023-03-08T12:50:54;-0.80;99.90
35607;DHT22;21729;58.392;15.656;2023-03-08T12:53:25;-0.80;99.90
35607;DHT22;21729;58.392;15.656;2023-03-08T12:56:17;-0.90;99.90
35607;DHT22;21729;58.392;15.656;2023-03-08T12:58:50;-1.00;99.90
35607;DHT22;21729;58.392;15.656;2023-03-08T13:01:28;-1.10;99.90
35607;DHT22;21729;58.392;15.656;2023-03-08T13:03:55;-1.10;99.90
35607;DHT22;21729;58.392;15.656;2023-03-08T13:09:31;-1.20;99.90
35607;DHT22;21729;58.392;15.656;2023-03-08T13:12:15;-1.20;99.90
35607;DHT22;21729;58.392;15.656;2023-03-08T13:14:46;-1.20;99.90
35607;DHT22;21729;58.392;15.656;2023-03-08T13:17:33;-1.30;99.90
35607;DHT22;21729;58.392;15.656;2023-03-08T13:20:07;-1.30;99.90
35607;DHT22;21729;58.392;15.656;2023-03-08T13:22:44;-1.30;99.90
35607;DHT22;21729;58.392;15.656;2023-03-08T13:25:21;-1.50;99.90
35607;DHT22;21729;58.392;15.656;2023-03-08T13:27:59;-1.50;99.90
35607;DHT22;21729;58.392;15.656;2023-03-08T13:30:32;-1.50;99.90
35607;DHT22;21729;58.392;15.656;2023-03-08T13:33:00;-1.50;99.90
35607;DHT22;21729;58.392;15.656;2023-03-08T13:35:32;-1.50;99.90
35607;DHT22;21729;58.392;15.656;2023-03-08T13:37:59;-1.50;99.90
35607;DHT22;21729;58.392;15.656;2023-03-08T13:40:28;-1.50;99.90
35607;DHT22;21729;58.392;15.656;2023-03-08T13:43:02;-1.50;99.90
35607;DHT22;21729;58.392;15.656;2023-03-08T13:45:33;-1.60;99.90
35607;DHT22;21729;58.392;15.656;2023-03-08T13:48:05;-1.50;99.90
35607;DHT22;21729;58.392;15.656;2023-03-08T13:50:35;-1.60;99.90
35607;DHT22;21729;58.392;15.656;2023-03-08T13:53:07;-1.30;99.90
35607;DHT22;21729;58.392;15.656;2023-03-08T13:55:38;-1.50;99.90
35607;DHT22;21729;58.392;15.656;2023-03-08T13:58:17;-1.60;99.90
35607;DHT22;21729;58.392;15.656;2023-03-08T14:00:55;-1.60;99.90
35607;DHT22;21729;58.392;15.656;2023-03-08T14:03:23;-1.40;99.90
35607;DHT22;21729;58.392;15.656;2023-03-08T14:05:53;-1.50;99.90
35607;DHT22;21729;58.392;15.656;2023-03-08T14:08:21;-1.50;99.90
35607;DHT22;21729;58.392;15.656;2023-03-08T14:10:52;-1.50;99.90
35607;DHT22;21729;58.392;15.656;2023-03-08T14:13:24;-1.60;99.90
35607;DHT22;21729;58.392;15.656;2023-03-08T14:15:53;-1.60;99.90
35607;DHT22;21729;58.392;15.656;2023-03-08T14:18:24;-1.50;99.90
35607;DHT22;21729;58.392;15.656;2023-03-08T14:21:00;-1.60;99.90
35607;DHT22;21729;58.392;15.656;2023-03-08T14:23:28;-1.60;99.90
35607;DHT22;21729;58.392;15.656;2023-03-08T14:25:56;-1.70;99.90
35607;DHT22;21729;58.392;15.656;2023-03-08T14:28:35;-1.80;99.90
35607;DHT22;21729;58.392;15.656;2023-03-08T14:31:02;-1.70;99.90
35607;DHT22;21729;58.392;15.656;2023-03-08T14:33:29;-1.80;99.90
35607;DHT22;21729;58.392;15.656;2023-03-08T14:35:57;-1.70;99.90
35607;DHT22;21729;58.392;15.656;2023-03-08T14:38:27;-1.70;99.90
35607;DHT22;21729;58.392;15.656;2023-03-08T14:40:57;-1.70;99.90
35607;DHT22;21729;58.392;15.656;2023-03-08T14:43:28;-1.70;99.90
35607;DHT22;21729;58.392;15.656;2023-03-08T14:45:59;-1.80;99.90
35607;DHT22;21729;58.392;15.656;2023-03-08T14:48:29;-1.70;99.90
35607;DHT22;21729;58.392;15.656;2023-03-08T14:50:58;-1.80;99.90
35607;DHT22;21729;58.392;15.656;2023-03-08T14:53:29;-1.90;99.90
35607;DHT22;21729;58.392;15.656;2023-03-08T14:55:57;-1.80;99.90
35607;DHT22;21729;58.392;15.656;2023-03-08T14:58:27;-1.80;99.90
35607;DHT22;21729;58.392;15.656;2023-03-08T15:00:57;-1.90;99.90
35607;DHT22;21729;58.392;15.656;2023-03-08T15:03:26;-1.90;99.90
35607;DHT22;21729;58.392;15.656;2023-03-08T15:05:54;-2.00;99.90
35607;DHT22;21729;58.392;15.656;2023-03-08T15:08:21;-2.00;99.90
35607;DHT22;21729;58.392;15.656;2023-03-08T15:10:49;-2.00;99.90
35607;DHT22;21729;58.392;15.656;2023-03-08T15:13:18;-2.00;99.90
35607;DHT22;21729;58.392;15.656;2023-03-08T15:15:46;-2.10;99.90
35607;DHT22;21729;58.392;15.656;2023-03-08T15:18:15;-2.20;99.90
35607;DHT22;21729;58.392;15.656;2023-03-08T15:20:44;-2.30;99.90
35607;DHT22;21729;58.392;15.656;2023-03-08T15:23:16;-2.30;99.90
35607;DHT22;21729;58.392;15.656;2023-03-08T15:25:45;-2.30;99.90
35607;DHT22;21729;58.392;15.656;2023-03-08T15:28:15;-2.40;99.90
35607;DHT22;21729;58.392;15.656;2023-03-08T15:30:42;-2.40;99.90
35607;DHT22;21729;58.392;15.656;2023-03-08T15:33:09;-2.40;99.90
35607;DHT22;21729;58.392;15.656;2023-03-08T15:35:38;-2.40;99.90
35607;DHT22;21729;58.392;15.656;2023-03-08T15:38:06;-2.40;99.90
35607;DHT22;21729;58.392;15.656;2023-03-08T15:40:33;-2.60;99.90
35607;DHT22;21729;58.392;15.656;2023-03-08T15:43:01;-2.60;99.90
35607;DHT22;21729;58.392;15.656;2023-03-08T15:45:28;-2.70;99.90
35607;DHT22;21729;58.392;15.656;2023-03-08T15:47:56;-2.90;99.90
35607;DHT22;21729;58.392;15.656;2023-03-08T15:50:24;-3.00;99.90